Time;durP1;ratioP1;P1;durP2;ratioP2;P2;SDS_P1;SDS_P2;PMS_P1;PMS_P2;Temp;Humidity;BMP_temperature;BMP_pressure;BME280_temperature;BME280_humidity;BME280_pressure;Samples;Min_cycle;Max_cycle;Signal;HPM_P1;HPM_P2
2023/09/21 00:01:25;;;;;;;4.23;2.90;;;14.90;99.90;;;;;;5024560;28;20462;-84
2023/09/21 00:04:10;;;;;;;4.10;2.80;;;15.00;99.90;;;;;;5027490;28;20479;-85
2023/09/21 00:06:56;;;;;;;4.13;2.73;;;15.00;99.90;;;;;;5027177;28;20399;-85
2023/09/21 00:09:42;;;;;;;4.90;2.70;;;15.10;99.90;;;;;;5021777;28;20893;-84
2023/09/21 00:12:29;;;;;;;9.90;3.20;;;15.10;99.90;;;;;;5027972;28;20642;-85
2023/09/21 00:15:21;;;;;;;5.33;2.77;;;15.20;99.90;;;;;;5031272;28;20423;-85
2023/09/21 00:18:06;;;;;;;6.50;2.70;;;15.20;99.90;;;;;;5024912;28;20472;-85
2023/09/21 00:20:53;;;;;;;4.23;2.67;;;15.20;99.90;;;;;;5026670;28;20441;-85
2023/09/21 00:23:38;;;;;;;6.97;3.33;;;15.10;99.90;;;;;;5030815;28;20478;-85
2023/09/21 00:26:27;;;;;;;3.60;2.60;;;15.00;99.90;;;;;;5025049;28;20810;-85
2023/09/21 00:29:15;;;;;;;7.17;2.80;;;15.00;99.90;;;;;;5021569;28;20506;-85
2023/09/21 00:32:01;;;;;;;7.37;3.17;;;14.80;99.90;;;;;;5021848;28;20973;-84
2023/09/21 00:34:49;;;;;;;6.50;3.70;;;14.70;99.90;;;;;;5027783;28;20448;-84
2023/09/21 00:37:36;;;;;;;5.07;2.93;;;14.70;99.90;;;;;;5027471;28;21064;-84
2023/09/21 00:40:22;;;;;;;25.33;3.80;;;14.70;99.90;;;;;;5024012;28;20436;-85
2023/09/21 00:43:09;;;;;;;4.13;2.77;;;14.70;99.90;;;;;;5023663;28;20481;-85
2023/09/21 00:46:00;;;;;;;7.13;2.50;;;14.70;99.90;;;;;;5028108;28;20411;-85
2023/09/21 00:48:46;;;;;;;8.60;3.30;;;14.60;99.90;;;;;;5026356;28;20443;-85
2023/09/21 00:51:33;;;;;;;4.40;3.27;;;14.60;99.90;;;;;;5024008;28;20452;-84
2023/09/21 00:54:20;;;;;;;4.50;2.87;;;14.40;99.90;;;;;;5020250;28;20475;-85
2023/09/21 00:57:06;;;;;;;4.40;2.73;;;14.40;99.90;;;;;;5024487;28;20411;-85
2023/09/21 00:59:52;;;;;;;4.13;2.90;;;14.40;99.90;;;;;;5026524;28;20952;-85
2023/09/21 01:02:41;;;;;;;8.93;2.63;;;14.50;99.90;;;;;;5026137;28;20429;-85
2023/09/21 01:05:29;;;;;;;3.93;2.57;;;14.50;99.90;;;;;;5023090;28;20778;-85
2023/09/21 01:08:17;;;;;;;6.63;3.07;;;14.60;99.90;;;;;;5043419;23;20552;-74
2023/09/21 01:11:09;;;;;;;3.77;2.50;;;14.70;99.90;;;;;;5017138;28;20538;-74
2023/09/21 01:13:55;;;;;;;3.63;2.40;;;14.60;99.90;;;;;;5021660;28;20423;-74
2023/09/21 01:16:41;;;;;;;8.37;3.33;;;14.60;99.90;;;;;;5021069;28;20458;-74
2023/09/21 01:19:28;;;;;;;16.93;3.43;;;14.50;99.90;;;;;;5023165;28;20411;-77
2023/09/21 01:22:14;;;;;;;5.93;2.70;;;14.40;99.90;;;;;;5012028;28;20465;-75
2023/09/21 01:25:02;;;;;;;3.60;2.43;;;14.50;99.90;;;;;;5013133;28;20480;-77
2023/09/21 01:27:50;;;;;;;4.30;2.47;;;14.50;99.90;;;;;;5021450;28;20755;-77
2023/09/21 01:30:36;;;;;;;6.30;2.90;;;14.60;99.90;;;;;;5004486;28;20450;-74
2023/09/21 01:33:23;;;;;;;8.53;3.33;;;14.70;99.90;;;;;;5022902;28;20925;-76
2023/09/21 01:36:10;;;;;;;5.90;2.67;;;14.70;99.90;;;;;;5020313;28;20429;-75
2023/09/21 01:38:56;;;;;;;7.50;3.07;;;14.70;99.90;;;;;;5010616;28;21038;-75
2023/09/21 01:41:43;;;;;;;5.10;2.80;;;14.80;99.90;;;;;;5011390;28;20445;-76
2023/09/21 01:44:30;;;;;;;3.53;2.70;;;14.80;99.90;;;;;;5017294;28;20469;-77
2023/09/21 01:47:17;;;;;;;4.30;2.70;;;14.70;99.90;;;;;;5031050;28;20423;-75
2023/09/21 01:50:06;;;;;;;5.73;2.80;;;14.60;99.90;;;;;;5018771;28;20439;-73
2023/09/21 01:52:51;;;;;;;3.93;2.70;;;14.60;99.90;;;;;;5026804;28;20437;-77
2023/09/21 01:55:38;;;;;;;6.70;3.20;;;14.70;99.90;;;;;;5015041;28;20405;-76
2023/09/21 01:58:25;;;;;;;9.60;3.03;;;14.70;99.90;;;;;;5007792;28;20529;-77
2023/09/21 02:01:10;;;;;;;9.23;3.60;;;14.80;99.90;;;;;;5017460;28;20432;-75
2023/09/21 02:03:56;;;;;;;3.73;2.83;;;14.80;99.90;;;;;;5027362;28;20618;-77
2023/09/21 02:06:42;;;;;;;3.83;2.70;;;14.80;99.90;;;;;;5019434;28;20425;-77
2023/09/21 02:09:28;;;;;;;6.47;2.53;;;14.80;99.90;;;;;;5014821;28;20950;-76
2023/09/21 02:12:14;;;;;;;5.83;2.83;;;14.80;99.90;;;;;;5021187;28;20475;-77
2023/09/21 02:15:00;;;;;;;3.90;2.50;;;14.80;99.90;;;;;;4999458;28;20421;-77
2023/09/21 02:17:46;;;;;;;5.00;2.47;;;14.80;99.90;;;;;;5016124;28;20488;-77
2023/09/21 02:20:34;;;;;;;6.43;3.27;;;14.80;99.90;;;;;;5013601;28;20459;-76
2023/09/21 02:23:20;;;;;;;3.47;2.40;;;14.60;99.90;;;;;;5014847;28;20459;-77
2023/09/21 02:26:06;;;;;;;8.73;2.87;;;14.50;99.90;;;;;;5023385;28;20543;-76
2023/09/21 02:28:53;;;;;;;5.90;2.97;;;14.30;99.90;;;;;;5014784;28;20503;-77
2023/09/21 02:31:42;;;;;;;4.50;2.80;;;14.30;99.90;;;;;;5000136;28;20810;-77
2023/09/21 02:34:29;;;;;;;4.50;2.90;;;14.20;99.90;;;;;;5011269;28;20964;-76
2023/09/21 02:37:15;;;;;;;6.10;2.87;;;14.30;99.90;;;;;;5020910;28;20954;-77
2023/09/21 02:40:01;;;;;;;7.20;3.33;;;14.30;99.90;;;;;;5031224;28;20433;-77
2023/09/21 02:42:49;;;;;;;7.30;3.30;;;14.20;99.90;;;;;;5024083;28;20431;-76
2023/09/21 02:45:36;;;;;;;4.20;2.63;;;14.30;99.90;;;;;;5014410;28;20787;-76
2023/09/21 02:48:23;;;;;;;5.63;3.30;;;14.30;99.90;;;;;;5016383;28;21005;-74
2023/09/21 02:51:09;;;;;;;5.87;3.40;;;14.50;99.90;;;;;;5016583;28;20729;-76
2023/09/21 02:53:58;;;;;;;4.60;2.60;;;14.60;99.90;;;;;;5024288;28;20507;-77
2023/09/21 02:56:44;;;;;;;4.27;2.90;;;14.60;99.90;;;;;;5017318;28;20428;-76
2023/09/21 02:59:30;;;;;;;4.00;2.20;;;14.60;99.90;;;;;;5018164;28;20498;-77
2023/09/21 03:02:18;;;;;;;3.70;2.57;;;14.60;99.90;;;;;;5026462;28;20995;-77
2023/09/21 03:05:10;;;;;;;4.10;2.90;;;14.80;99.90;;;;;;5008425;28;20474;-77
2023/09/21 03:07:56;;;;;;;4.40;2.70;;;14.70;99.90;;;;;;5017597;28;20457;-77
2023/09/21 03:10:43;;;;;;;4.10;2.63;;;14.70;99.90;;;;;;5013973;28;20963;-77
2023/09/21 03:13:30;;;;;;;4.37;3.20;;;14.60;99.90;;;;;;5017694;28;20434;-75
2023/09/21 03:16:16;;;;;;;4.47;2.80;;;14.70;99.90;;;;;;5014749;28;20548;-77
2023/09/21 03:19:03;;;;;;;7.00;2.83;;;14.60;99.90;;;;;;5013165;28;20437;-75
2023/09/21 03:21:50;;;;;;;3.20;2.53;;;14.50;99.90;;;;;;5011375;28;20449;-74
2023/09/21 03:24:36;;;;;;;3.60;2.73;;;14.50;99.90;;;;;;5020562;28;20435;-76
2023/09/21 03:27:23;;;;;;;3.57;2.80;;;14.60;99.90;;;;;;5025392;28;20805;-77
2023/09/21 03:30:12;;;;;;;5.00;3.10;;;14.70;99.90;;;;;;5015689;28;20934;-76
2023/09/21 03:32:57;;;;;;;6.67;3.27;;;14.80;99.90;;;;;;5015089;28;20423;-77
2023/09/21 03:35:43;;;;;;;5.83;3.00;;;14.80;99.90;;;;;;5017091;28;20433;-77
2023/09/21 03:38:30;;;;;;;5.20;2.70;;;14.80;99.90;;;;;;5012584;28;20813;-75
2023/09/21 03:41:16;;;;;;;3.27;2.50;;;14.80;99.90;;;;;;5008966;28;20486;-77
2023/09/21 03:44:03;;;;;;;3.30;2.60;;;14.90;99.90;;;;;;5027542;28;20476;-76
2023/09/21 03:46:49;;;;;;;4.30;3.23;;;14.90;99.90;;;;;;5022648;28;20791;-77
2023/09/21 03:49:34;;;;;;;6.33;2.90;;;15.00;99.90;;;;;;5023337;28;20508;-76
2023/09/21 03:52:22;;;;;;;3.60;2.80;;;15.10;99.90;;;;;;5021998;28;20408;-76
2023/09/21 03:55:15;;;;;;;3.47;2.57;;;15.10;99.90;;;;;;5016632;28;20629;-75
2023/09/21 03:58:01;;;;;;;3.80;2.37;;;15.20;99.90;;;;;;5013421;28;20465;-76
2023/09/21 04:00:47;;;;;;;4.37;3.03;;;15.20;99.90;;;;;;5018242;28;20436;-76
2023/09/21 04:03:33;;;;;;;4.20;2.87;;;15.30;99.90;;;;;;5018197;28;20571;-76
2023/09/21 04:06:18;;;;;;;6.73;2.53;;;15.30;99.90;;;;;;5024938;28;20960;-76
2023/09/21 04:09:06;;;;;;;3.83;2.80;;;15.30;99.90;;;;;;5020722;28;20442;-77
2023/09/21 04:11:56;;;;;;;6.93;2.60;;;15.30;99.90;;;;;;5028999;28;20508;-76
2023/09/21 04:14:45;;;;;;;6.00;3.27;;;15.30;99.90;;;;;;4998299;28;20459;-76
2023/09/21 04:17:31;;;;;;;3.43;2.67;;;15.40;99.90;;;;;;5026134;28;21312;-76
2023/09/21 04:20:18;;;;;;;4.40;3.17;;;15.40;99.90;;;;;;5023039;28;20516;-77
2023/09/21 04:23:04;;;;;;;4.67;2.90;;;15.40;99.90;;;;;;5019558;28;20430;-75
2023/09/21 04:25:50;;;;;;;5.27;2.90;;;15.40;99.90;;;;;;5023742;28;20491;-76
2023/09/21 04:28:37;;;;;;;4.33;3.03;;;15.50;99.90;;;;;;5007045;28;20416;-76
2023/09/21 04:31:22;;;;;;;5.53;3.30;;;15.40;99.90;;;;;;5014143;28;20793;-75
2023/09/21 04:34:08;;;;;;;4.63;3.40;;;15.40;99.90;;;;;;5017887;28;20428;-75
2023/09/21 04:36:54;;;;;;;5.27;3.40;;;15.30;99.90;;;;;;5031058;28;20429;-76
2023/09/21 04:39:40;;;;;;;5.00;3.30;;;15.30;99.90;;;;;;5019148;28;20442;-77
2023/09/21 04:42:28;;;;;;;6.00;4.10;;;15.20;99.90;;;;;;5020954;28;20407;-77
2023/09/21 04:45:16;;;;;;;6.20;4.07;;;15.30;99.90;;;;;;5021377;28;20497;-77
2023/09/21 04:48:03;;;;;;;4.67;3.33;;;15.20;99.90;;;;;;5012118;28;20455;-77
2023/09/21 04:50:49;;;;;;;6.63;3.23;;;15.20;99.90;;;;;;5019874;28;20427;-75
2023/09/21 04:53:35;;;;;;;4.50;3.97;;;15.20;99.90;;;;;;5025197;28;20414;-76
2023/09/21 04:56:20;;;;;;;6.83;3.40;;;15.20;99.90;;;;;;5015163;28;20409;-77
2023/09/21 04:59:06;;;;;;;7.80;3.90;;;15.30;99.90;;;;;;5028899;28;20442;-77
2023/09/21 05:01:54;;;;;;;4.40;3.40;;;15.40;99.90;;;;;;5021118;28;20436;-76
2023/09/21 05:04:40;;;;;;;5.87;3.40;;;15.30;99.90;;;;;;5026740;28;20634;-76
2023/09/21 05:07:26;;;;;;;5.87;4.53;;;15.20;99.90;;;;;;5012759;28;20477;-76
2023/09/21 05:10:13;;;;;;;8.43;4.17;;;15.20;99.90;;;;;;5016969;28;20430;-76
2023/09/21 05:12:58;;;;;;;5.77;3.33;;;15.20;99.90;;;;;;5007217;28;20761;-76
2023/09/21 05:15:45;;;;;;;5.70;3.17;;;15.20;99.90;;;;;;5022851;28;20423;-75
2023/09/21 05:18:32;;;;;;;5.47;3.27;;;15.30;99.90;;;;;;5021146;28;20970;-75
2023/09/21 05:21:18;;;;;;;5.57;3.40;;;15.40;99.90;;;;;;5019267;28;20400;-77
2023/09/21 05:24:04;;;;;;;5.27;3.57;;;15.50;99.90;;;;;;5004850;28;20448;-76
2023/09/21 05:26:50;;;;;;;5.63;3.40;;;15.50;99.90;;;;;;5023489;28;20412;-76
2023/09/21 05:29:36;;;;;;;5.47;3.30;;;15.50;99.90;;;;;;5023314;28;20435;-77
2023/09/21 05:32:21;;;;;;;4.70;4.10;;;15.60;99.90;;;;;;5022937;28;20429;-76
2023/09/21 05:35:10;;;;;;;4.27;2.97;;;15.60;99.90;;;;;;5020282;28;20651;-77
2023/09/21 05:37:56;;;;;;;6.47;3.90;;;15.70;99.90;;;;;;5013696;28;20464;-77
2023/09/21 05:40:42;;;;;;;18.93;4.67;;;15.70;99.90;;;;;;5018161;28;20453;-76
2023/09/21 05:43:29;;;;;;;6.23;3.40;;;15.60;99.90;;;;;;5024671;28;20811;-75
2023/09/21 05:46:14;;;;;;;4.80;3.70;;;15.60;99.90;;;;;;5021863;28;20512;-76
2023/09/21 05:49:00;;;;;;;6.03;3.23;;;15.60;99.90;;;;;;5030711;28;20504;-77
2023/09/21 05:51:48;;;;;;;7.10;3.27;;;15.60;99.90;;;;;;5013041;28;20503;-77
2023/09/21 05:54:35;;;;;;;4.93;3.23;;;15.70;99.90;;;;;;5023351;28;21004;-76
2023/09/21 05:57:21;;;;;;;5.53;3.50;;;15.70;99.90;;;;;;5020515;28;20453;-75
2023/09/21 06:00:08;;;;;;;5.87;3.23;;;15.60;99.90;;;;;;5025819;28;20399;-75
2023/09/21 06:02:54;;;;;;;6.10;3.87;;;15.50;99.90;;;;;;5025308;28;20924;-76
2023/09/21 06:05:45;;;;;;;5.07;3.30;;;15.40;99.90;;;;;;5019997;28;20923;-76
2023/09/21 06:08:32;;;;;;;5.37;3.70;;;15.40;99.90;;;;;;5021985;28;20978;-74
2023/09/21 06:11:17;;;;;;;6.37;3.27;;;15.40;99.90;;;;;;5019999;28;20435;-77
2023/09/21 06:14:04;;;;;;;5.60;3.60;;;15.50;99.90;;;;;;5023319;28;20441;-77
2023/09/21 06:16:51;;;;;;;5.33;3.90;;;15.60;99.90;;;;;;5023855;28;20400;-77
2023/09/21 06:19:38;;;;;;;4.40;3.50;;;15.50;99.90;;;;;;5024444;28;20450;-77
2023/09/21 06:22:23;;;;;;;4.60;3.50;;;15.50;99.90;;;;;;5024573;28;20544;-77
2023/09/21 06:25:11;;;;;;;9.67;3.60;;;15.60;99.90;;;;;;5005879;28;20479;-74
2023/09/21 06:27:57;;;;;;;5.53;3.47;;;15.60;99.90;;;;;;5029866;28;20544;-73
2023/09/21 06:30:44;;;;;;;6.00;3.43;;;15.80;99.90;;;;;;5023774;28;20910;-76
2023/09/21 06:33:32;;;;;;;8.40;3.17;;;15.90;99.90;;;;;;5019180;28;20424;-77
2023/09/21 06:36:20;;;;;;;5.47;3.43;;;15.90;99.90;;;;;;5022374;28;20568;-77
2023/09/21 06:39:08;;;;;;;7.43;3.83;;;15.90;99.90;;;;;;5014143;28;20409;-75
2023/09/21 06:41:55;;;;;;;6.40;3.97;;;16.00;99.90;;;;;;5021805;28;20458;-72
2023/09/21 06:44:41;;;;;;;6.33;4.27;;;16.00;99.90;;;;;;5022258;28;20439;-77
2023/09/21 06:47:28;;;;;;;4.63;3.17;;;16.00;99.90;;;;;;5022373;28;20530;-77
2023/09/21 06:50:14;;;;;;;4.83;3.30;;;16.00;99.90;;;;;;5022122;28;20430;-76
2023/09/21 06:53:00;;;;;;;10.17;3.70;;;15.90;99.90;;;;;;5019746;28;20399;-77
2023/09/21 06:55:45;;;;;;;4.47;3.33;;;15.80;99.90;;;;;;5020136;28;20430;-76
2023/09/21 06:58:35;;;;;;;5.77;3.77;;;15.80;99.90;;;;;;5028763;28;20424;-75
2023/09/21 07:01:21;;;;;;;6.33;3.53;;;15.90;99.90;;;;;;5008072;28;20449;-77
2023/09/21 07:04:07;;;;;;;10.97;3.70;;;15.90;99.90;;;;;;5022005;28;20795;-77
2023/09/21 07:06:52;;;;;;;8.63;4.10;;;16.00;99.90;;;;;;5024180;28;20461;-77
2023/09/21 07:09:38;;;;;;;5.60;3.67;;;16.10;99.90;;;;;;5029490;28;20426;-77
2023/09/21 07:12:24;;;;;;;7.50;3.90;;;16.10;99.90;;;;;;5028988;28;20405;-76
2023/09/21 07:15:12;;;;;;;6.13;4.10;;;16.20;99.90;;;;;;5019304;28;20426;-76
2023/09/21 07:17:58;;;;;;;7.80;3.33;;;16.20;99.90;;;;;;5017899;28;20475;-77
2023/09/21 07:20:43;;;;;;;6.40;3.30;;;16.20;99.90;;;;;;5026806;23;20497;-69
2023/09/21 07:23:29;;;;;;;5.30;3.57;;;16.20;99.90;;;;;;5009304;28;20400;-70
2023/09/21 07:26:14;;;;;;;13.13;4.33;;;16.20;99.90;;;;;;5001066;28;20478;-70
2023/09/21 07:29:05;;;;;;;7.30;3.73;;;16.20;99.90;;;;;;4999236;28;20496;-70
2023/09/21 07:31:52;;;;;;;11.80;4.40;;;16.00;99.90;;;;;;4985652;28;20590;-70
2023/09/21 07:34:38;;;;;;;6.10;3.67;;;16.10;99.90;;;;;;4982545;28;20547;-70
2023/09/21 07:37:24;;;;;;;4.73;3.70;;;16.30;99.90;;;;;;4982157;28;20512;-70
2023/09/21 07:40:12;;;;;;;6.23;3.67;;;16.20;99.90;;;;;;4986188;28;20422;-70
2023/09/21 07:42:58;;;;;;;5.27;4.13;;;16.30;99.90;;;;;;4988885;28;20495;-70
2023/09/21 07:45:48;;;;;;;5.93;3.83;;;16.40;99.90;;;;;;4984355;28;20486;-70
2023/09/21 07:48:35;;;;;;;9.13;4.03;;;16.50;99.90;;;;;;4981934;28;20509;-70
2023/09/21 07:51:25;;;;;;;5.30;3.53;;;16.50;99.90;;;;;;4983529;28;20616;-70
2023/09/21 07:54:12;;;;;;;5.50;3.30;;;16.70;99.90;;;;;;4983379;28;20422;-70
2023/09/21 07:56:57;;;;;;;5.90;3.20;;;16.80;99.90;;;;;;4978119;28;20942;-70
2023/09/21 07:59:43;;;;;;;6.30;3.90;;;16.90;99.90;;;;;;4982626;28;21006;-70
2023/09/21 08:02:29;;;;;;;4.93;3.80;;;17.00;99.90;;;;;;4979425;28;20959;-70
2023/09/21 08:05:16;;;;;;;6.57;4.30;;;17.10;99.90;;;;;;4977695;28;20444;-70
2023/09/21 08:08:02;;;;;;;11.97;6.00;;;17.20;99.90;;;;;;4984185;28;20471;-70
2023/09/21 08:10:49;;;;;;;13.23;4.70;;;17.30;99.90;;;;;;4981973;28;20587;-69
2023/09/21 08:13:35;;;;;;;9.97;4.47;;;17.30;99.90;;;;;;4985803;28;20436;-71
2023/09/21 08:16:21;;;;;;;7.93;4.10;;;17.30;99.90;;;;;;4980922;28;20432;-70
2023/09/21 08:19:06;;;;;;;15.37;5.13;;;17.40;99.90;;;;;;4974958;28;20436;-70
2023/09/21 08:21:53;;;;;;;25.13;6.60;;;17.40;99.90;;;;;;4988787;28;20426;-70
2023/09/21 08:24:41;;;;;;;21.63;7.23;;;17.50;99.90;;;;;;4979961;28;20403;-70
2023/09/21 08:27:28;;;;;;;24.67;5.83;;;17.50;99.90;;;;;;4988416;28;20977;-70
2023/09/21 08:30:15;;;;;;;18.50;5.73;;;17.60;99.90;;;;;;4984534;28;20539;-70
2023/09/21 08:33:02;;;;;;;25.57;5.20;;;17.60;99.90;;;;;;4988568;28;20443;-69
2023/09/21 08:35:48;;;;;;;24.23;5.97;;;17.70;99.90;;;;;;4992403;28;20530;-70
2023/09/21 08:38:35;;;;;;;29.73;5.63;;;17.70;99.90;;;;;;4985090;28;20718;-70
2023/09/21 08:41:21;;;;;;;11.43;5.30;;;17.70;99.90;;;;;;4978748;28;20959;-70
2023/09/21 08:44:08;;;;;;;17.47;4.60;;;17.70;99.90;;;;;;4987948;28;20485;-70
2023/09/21 08:46:54;;;;;;;10.33;4.67;;;17.80;99.90;;;;;;4981121;28;20520;-70
2023/09/21 08:49:45;;;;;;;10.53;3.93;;;17.80;99.90;;;;;;4983205;28;20436;-70
2023/09/21 08:52:34;;;;;;;4.40;3.73;;;17.80;99.90;;;;;;4978994;28;20433;-69
2023/09/21 08:55:22;;;;;;;6.90;3.70;;;17.90;99.90;;;;;;4977702;28;20451;-70
2023/09/21 08:58:09;;;;;;;7.47;4.30;;;17.90;99.90;;;;;;4976176;28;20485;-70
2023/09/21 09:00:57;;;;;;;5.87;3.97;;;17.80;99.90;;;;;;4982288;28;20629;-71
2023/09/21 09:03:43;;;;;;;7.90;4.23;;;17.80;99.90;;;;;;4990708;28;20444;-70
2023/09/21 09:06:29;;;;;;;6.17;3.97;;;17.90;99.90;;;;;;4988625;28;20480;-72
2023/09/21 09:09:15;;;;;;;6.73;4.00;;;18.00;99.90;;;;;;4986523;28;20465;-70
2023/09/21 09:12:02;;;;;;;4.50;3.73;;;18.10;99.90;;;;;;4989621;28;20445;-70
2023/09/21 09:14:48;;;;;;;7.40;4.23;;;18.20;99.90;;;;;;4991624;28;20473;-70
2023/09/21 09:17:34;;;;;;;6.37;4.07;;;18.30;99.90;;;;;;4988669;28;20426;-70
2023/09/21 09:20:20;;;;;;;7.80;4.30;;;18.50;99.90;;;;;;4991024;28;20828;-70
2023/09/21 09:23:10;;;;;;;9.00;5.07;;;18.60;99.90;;;;;;4988496;28;20555;-70
2023/09/21 09:25:55;;;;;;;9.90;4.40;;;18.60;99.90;;;;;;4991051;28;20473;-70
2023/09/21 09:28:42;;;;;;;9.30;3.80;;;18.60;99.90;;;;;;4991315;28;20408;-70
2023/09/21 09:31:29;;;;;;;7.33;3.87;;;18.70;99.90;;;;;;4991699;28;20512;-70
2023/09/21 09:34:17;;;;;;;10.03;3.43;;;18.80;99.90;;;;;;4986076;28;20430;-70
2023/09/21 09:37:03;;;;;;;9.53;3.60;;;19.10;99.90;;;;;;4985298;28;20426;-71
2023/09/21 09:39:49;;;;;;;5.10;3.50;;;19.30;99.90;;;;;;4986826;28;20492;-70
2023/09/21 09:42:34;;;;;;;6.13;3.53;;;19.50;99.90;;;;;;4979423;28;20430;-70
2023/09/21 09:45:25;;;;;;;3.90;2.97;;;19.80;99.90;;;;;;4980501;28;20430;-70
2023/09/21 09:48:12;;;;;;;9.03;3.17;;;19.90;99.90;;;;;;4988536;28;20419;-69
2023/09/21 09:51:03;;;;;;;9.13;3.40;;;20.00;99.90;;;;;;4990863;28;20454;-69
2023/09/21 09:53:51;;;;;;;6.63;3.40;;;20.20;99.90;;;;;;4983106;28;20439;-71
2023/09/21 09:56:41;;;;;;;4.37;2.90;;;20.30;99.90;;;;;;4989470;28;20442;-70
2023/09/21 09:59:28;;;;;;;5.80;3.57;;;20.30;99.90;;;;;;4990407;28;20458;-70
2023/09/21 10:02:18;;;;;;;6.47;3.00;;;20.40;99.90;;;;;;4988101;28;20531;-70
2023/09/21 10:05:06;;;;;;;7.40;3.30;;;20.40;99.90;;;;;;4980286;28;20584;-71
2023/09/21 10:07:56;;;;;;;8.00;3.53;;;20.70;99.90;;;;;;4987989;28;21021;-70
2023/09/21 10:10:46;;;;;;;9.77;3.10;;;20.90;99.90;;;;;;4987696;28;20672;-70
2023/09/21 10:13:32;;;;;;;5.20;2.60;;;21.10;99.90;;;;;;4983282;28;20427;-70
2023/09/21 10:16:19;;;;;;;4.03;2.57;;;21.20;99.90;;;;;;4984832;28;20797;-70
2023/09/21 10:19:06;;;;;;;3.80;2.40;;;21.30;99.90;;;;;;4990446;28;20920;-70
2023/09/21 10:21:56;;;;;;;4.30;2.20;;;21.40;99.90;;;;;;4984239;28;20570;-70
2023/09/21 10:24:51;;;;;;;5.90;4.27;;;21.60;99.90;;;;;;4985021;28;20454;-71
2023/09/21 10:27:39;;;;;;;3.00;2.00;;;21.80;99.90;;;;;;4988428;28;21080;-71
2023/09/21 10:30:25;;;;;;;6.90;2.87;;;21.90;99.90;;;;;;4989472;28;20953;-71
2023/09/21 10:33:12;;;;;;;3.50;2.10;;;22.00;99.90;;;;;;4983576;28;20446;-71
2023/09/21 10:36:00;;;;;;;3.33;2.00;;;22.10;99.90;;;;;;4990370;28;20422;-71
2023/09/21 10:39:24;;;;;;;5.73;1.83;;;22.20;99.90;;;;;;4982721;28;20471;-71
2023/09/21 10:42:33;;;;;;;3.30;1.90;;;22.30;99.90;;;;;;4976520;28;20431;-71
2023/09/21 10:45:18;;;;;;;4.10;1.90;;;22.30;99.90;;;;;;4988813;28;20928;-71
2023/09/21 10:48:06;;;;;;;4.57;2.07;;;22.40;99.90;;;;;;4987908;28;20485;-70
2023/09/21 10:50:52;;;;;;;3.70;1.80;;;22.30;99.90;;;;;;4987399;28;20936;-71
2023/09/21 10:53:39;;;;;;;3.70;2.13;;;22.30;99.90;;;;;;4990015;28;20593;-71
2023/09/21 10:56:25;;;;;;;5.20;1.90;;;22.30;99.90;;;;;;4986011;28;20810;-71
2023/09/21 10:59:10;;;;;;;2.57;1.70;;;22.30;99.90;;;;;;4988560;28;20449;-70
2023/09/21 11:01:57;;;;;;;3.23;1.60;;;22.30;99.90;;;;;;4987015;28;20430;-71
2023/09/21 11:04:43;;;;;;;4.40;2.30;;;22.20;99.90;;;;;;4988629;28;20438;-71
2023/09/21 11:07:29;;;;;;;2.77;1.77;;;22.10;99.90;;;;;;4987078;28;21070;-70
2023/09/21 11:10:17;;;;;;;3.80;2.13;;;22.10;99.90;;;;;;4987418;28;21012;-72
2023/09/21 11:13:03;;;;;;;4.67;1.80;;;22.10;99.90;;;;;;4982514;28;20451;-70
2023/09/21 11:15:49;;;;;;;3.00;1.97;;;22.00;99.90;;;;;;4988812;28;21020;-71
2023/09/21 11:18:35;;;;;;;4.63;1.90;;;22.00;99.90;;;;;;4989434;28;20438;-71
2023/09/21 11:21:21;;;;;;;5.13;2.17;;;22.00;99.90;;;;;;4986423;28;20981;-71
2023/09/21 11:24:08;;;;;;;3.47;2.30;;;22.00;99.90;;;;;;4990714;28;20429;-71
2023/09/21 11:26:55;;;;;;;3.03;1.77;;;21.90;99.90;;;;;;4986359;28;20841;-70
2023/09/21 11:29:42;;;;;;;6.23;2.03;;;21.90;99.90;;;;;;4987882;28;20434;-71
2023/09/21 11:32:29;;;;;;;3.70;2.27;;;21.90;99.90;;;;;;4987327;28;20463;-71
2023/09/21 11:35:17;;;;;;;5.70;1.80;;;21.90;99.90;;;;;;4989329;28;20810;-71
2023/09/21 11:38:04;;;;;;;6.23;2.07;;;21.90;99.90;;;;;;4983788;28;20562;-68
2023/09/21 11:40:50;;;;;;;3.57;2.00;;;22.00;99.90;;;;;;4990178;28;20886;-71
2023/09/21 11:43:38;;;;;;;4.40;2.13;;;22.20;99.90;;;;;;4977471;28;20432;-71
2023/09/21 11:46:24;;;;;;;3.10;1.73;;;22.30;99.90;;;;;;4989854;28;20482;-71
2023/09/21 11:49:10;;;;;;;5.40;1.93;;;22.40;99.90;;;;;;4985570;28;20513;-70
2023/09/21 11:51:57;;;;;;;3.70;1.93;;;22.50;99.90;;;;;;4987858;28;20441;-71
2023/09/21 11:54:43;;;;;;;3.60;1.90;;;22.60;99.90;;;;;;4988615;28;20514;-71
2023/09/21 11:57:29;;;;;;;3.60;1.87;;;22.70;99.90;;;;;;4982883;28;20454;-71
2023/09/21 12:00:26;;;;;;;3.43;1.87;;;22.80;99.90;;;;;;4987528;28;20558;-71
2023/09/21 12:03:13;;;;;;;4.50;2.20;;;22.80;99.90;;;;;;4992293;28;20423;-71
2023/09/21 12:05:59;;;;;;;4.10;2.03;;;22.90;99.90;;;;;;4991360;28;20445;-71
2023/09/21 12:08:45;;;;;;;3.37;2.23;;;22.90;99.90;;;;;;4989700;28;20440;-70
2023/09/21 12:11:30;;;;;;;5.57;1.77;;;22.90;98.70;;;;;;4989111;28;20478;-71
2023/09/21 12:14:16;;;;;;;2.57;1.50;;;22.90;99.00;;;;;;4983147;28;20503;-70
2023/09/21 12:17:09;;;;;;;3.37;1.67;;;22.90;99.90;;;;;;4991717;28;20454;-71
2023/09/21 12:19:54;;;;;;;5.63;1.80;;;22.90;98.90;;;;;;4985736;28;20519;-70
2023/09/21 12:22:40;;;;;;;4.40;1.63;;;22.80;97.80;;;;;;4981432;28;20473;-72
2023/09/21 12:25:26;;;;;;;5.53;2.90;;;22.80;98.90;;;;;;4985927;28;20450;-70
2023/09/21 12:28:12;;;;;;;7.90;1.90;;;22.80;96.50;;;;;;4984968;28;20474;-70
2023/09/21 12:30:57;;;;;;;7.53;1.80;;;22.80;90.80;;;;;;4987366;28;20466;-70
2023/09/21 12:33:44;;;;;;;2.37;1.37;;;22.80;92.60;;;;;;4987804;28;20535;-70
2023/09/21 12:36:31;;;;;;;2.47;1.37;;;22.80;90.80;;;;;;4983388;28;20496;-70
2023/09/21 12:39:18;;;;;;;3.50;1.50;;;22.90;92.90;;;;;;4982383;28;20461;-70
2023/09/21 12:42:05;;;;;;;3.33;1.67;;;22.90;92.30;;;;;;4986367;28;20423;-70
2023/09/21 12:44:50;;;;;;;5.13;1.33;;;22.90;93.50;;;;;;4988484;28;20442;-70
2023/09/21 12:47:36;;;;;;;2.17;1.17;;;23.00;92.40;;;;;;4980333;28;20475;-70
2023/09/21 12:50:24;;;;;;;3.07;1.87;;;23.20;95.40;;;;;;4977014;28;20439;-71
2023/09/21 12:53:10;;;;;;;2.57;1.47;;;23.40;95.30;;;;;;4986363;28;20450;-70
2023/09/21 12:55:56;;;;;;;3.73;2.43;;;23.60;85.90;;;;;;4988708;28;20507;-70
2023/09/21 12:58:42;;;;;;;2.80;1.53;;;23.80;84.80;;;;;;4984149;28;21218;-72
2023/09/21 13:01:28;;;;;;;2.50;1.40;;;24.00;85.00;;;;;;4984604;28;20442;-71
2023/09/21 13:04:13;;;;;;;2.93;1.90;;;23.90;87.10;;;;;;4983079;28;20494;-70
2023/09/21 13:07:02;;;;;;;7.23;1.40;;;24.00;86.80;;;;;;4989221;28;20524;-70
2023/09/21 13:09:48;;;;;;;3.10;1.83;;;24.40;92.10;;;;;;4982545;28;20479;-70
2023/09/21 13:12:35;;;;;;;2.53;1.47;;;24.70;81.90;;;;;;4986689;28;20820;-72
2023/09/21 13:15:21;;;;;;;3.90;1.70;;;25.00;69.00;;;;;;4985580;28;20589;-70
2023/09/21 13:18:06;;;;;;;2.70;1.43;;;25.10;72.10;;;;;;4985145;28;21200;-70
2023/09/21 13:20:52;;;;;;;3.13;1.43;;;25.10;60.20;;;;;;5016158;22;21172;-77
2023/09/21 13:23:39;;;;;;;3.00;1.50;;;24.90;58.50;;;;;;5023147;28;20453;-77
2023/09/21 13:26:25;;;;;;;2.63;1.73;;;24.70;60.50;;;;;;5024401;28;20452;-77
2023/09/21 13:29:11;;;;;;;9.30;1.60;;;24.30;54.80;;;;;;5014225;28;20545;-77
2023/09/21 13:31:56;;;;;;;2.67;1.33;;;24.20;58.90;;;;;;5004304;28;20551;-77
2023/09/21 13:34:43;;;;;;;3.47;1.70;;;24.10;58.20;;;;;;5005065;28;20988;-77
2023/09/21 13:37:29;;;;;;;5.47;1.57;;;23.90;60.60;;;;;;5005989;28;21044;-76
2023/09/21 13:40:16;;;;;;;4.00;1.77;;;23.70;63.20;;;;;;5002217;28;20609;-76
2023/09/21 13:43:02;;;;;;;2.40;1.27;;;23.60;66.90;;;;;;5003354;28;20463;-77
2023/09/21 13:45:47;;;;;;;4.37;1.63;;;23.60;73.90;;;;;;5002448;28;20441;-77
2023/09/21 13:48:33;;;;;;;3.17;1.67;;;23.50;75.40;;;;;;5011724;28;21072;-77
2023/09/21 13:51:19;;;;;;;5.07;1.80;;;23.50;82.90;;;;;;5005615;28;20473;-77
2023/09/21 13:54:05;;;;;;;3.20;1.77;;;23.40;93.50;;;;;;5008634;28;20451;-77
2023/09/21 13:56:52;;;;;;;4.73;2.00;;;23.20;98.70;;;;;;5009258;28;20492;-78
2023/09/21 13:59:39;;;;;;;7.13;1.90;;;23.20;98.70;;;;;;5004453;28;20489;-76
2023/09/21 14:02:27;;;;;;;2.87;1.60;;;23.10;99.90;;;;;;5001615;28;20454;-78
2023/09/21 14:05:12;;;;;;;4.80;1.57;;;23.10;99.90;;;;;;5005031;28;20520;-76
2023/09/21 14:07:58;;;;;;;5.90;1.60;;;23.10;99.90;;;;;;5003698;28;21000;-77
2023/09/21 14:10:45;;;;;;;4.20;2.10;;;23.00;99.90;;;;;;5001564;28;20988;-76
2023/09/21 14:13:32;;;;;;;2.63;1.70;;;22.90;99.90;;;;;;4999242;28;20517;-76
2023/09/21 14:16:18;;;;;;;4.57;1.90;;;22.90;99.90;;;;;;5006319;28;20454;-77
2023/09/21 14:19:04;;;;;;;4.13;1.67;;;23.00;99.90;;;;;;5002979;28;20540;-76
2023/09/21 14:21:51;;;;;;;4.50;2.13;;;23.10;99.90;;;;;;5003647;28;20498;-78
2023/09/21 14:24:38;;;;;;;5.07;1.97;;;23.10;99.90;;;;;;5000546;28;20521;-78
2023/09/21 14:27:24;;;;;;;4.07;1.37;;;23.20;99.90;;;;;;5001377;28;20527;-77